Hacienda Asturias, Puerto Rico
Current Conditions -  °F | °C
As of 9:50 AM on Thursday 30 Oct 2014 (Local Time) from TJBQ Reporting Station
Scattered Clouds Scattered Clouds  
Wind Chill: 84°   Ceiling: Unl
Heat Index: 91°   Visibility: 10mi
Dew Point: 73°   Wind: 5mph
Humidity: 70%   Direction: 60°ENE
Pressure: 29.88"   Gusts: NA
Location:  18.4943°N, 67.0987°W
Report Text: TJBQ 301350Z 06004KT 10SM SCT020 SCT025 29/23 A2988 RMK RWY08 ATIS V
Loading
Personal Weather Stations






























Interactive Weather Map
Tropical Storm Tracking
New forecast layout! Learn more

10-Day Weather Forecast

Advertisements
Track Severe Weather on mobile